sensor_id;sensor_type;location;lat;lon;timestamp;P1;durP1;ratioP1;P2;durP2;ratioP2
26319;SDS011;14024;52.226;5.200;2022-11-20T00:02:18;25.83;;;12.07;;
26319;SDS011;14024;52.226;5.200;2022-11-20T00:04:44;26.83;;;11.30;;
26319;SDS011;14024;52.226;5.200;2022-11-20T00:07:10;25.80;;;11.98;;
26319;SDS011;14024;52.226;5.200;2022-11-20T00:09:36;31.05;;;13.63;;
26319;SDS011;14024;52.226;5.200;2022-11-20T00:12:02;26.73;;;13.57;;
26319;SDS011;14024;52.226;5.200;2022-11-20T00:14:28;31.77;;;13.55;;
26319;SDS011;14024;52.226;5.200;2022-11-20T00:16:54;28.38;;;13.80;;
26319;SDS011;14024;52.226;5.200;2022-11-20T00:19:20;38.78;;;14.65;;
26319;SDS011;14024;52.226;5.200;2022-11-20T00:21:46;32.25;;;13.25;;
26319;SDS011;14024;52.226;5.200;2022-11-20T00:24:12;34.47;;;14.05;;
26319;SDS011;14024;52.226;5.200;2022-11-20T00:26:38;29.50;;;12.82;;
26319;SDS011;14024;52.226;5.200;2022-11-20T00:29:04;29.83;;;13.20;;
26319;SDS011;14024;52.226;5.200;2022-11-20T00:31:31;28.25;;;12.63;;
26319;SDS011;14024;52.226;5.200;2022-11-20T00:33:58;26.25;;;11.60;;
26319;SDS011;14024;52.226;5.200;2022-11-20T00:36:25;26.10;;;12.07;;
26319;SDS011;14024;52.226;5.200;2022-11-20T00:38:55;28.60;;;12.25;;
26319;SDS011;14024;52.226;5.200;2022-11-20T00:41:21;26.65;;;11.77;;
26319;SDS011;14024;52.226;5.200;2022-11-20T00:43:47;26.50;;;11.38;;
26319;SDS011;14024;52.226;5.200;2022-11-20T00:46:14;29.65;;;11.45;;
26319;SDS011;14024;52.226;5.200;2022-11-20T00:48:40;27.02;;;12.15;;
26319;SDS011;14024;52.226;5.200;2022-11-20T00:51:07;27.25;;;12.35;;
26319;SDS011;14024;52.226;5.200;2022-11-20T00:53:33;25.10;;;11.40;;
26319;SDS011;14024;52.226;5.200;2022-11-20T00:56:00;25.23;;;11.60;;
26319;SDS011;14024;52.226;5.200;2022-11-20T00:58:33;27.48;;;12.43;;
26319;SDS011;14024;52.226;5.200;2022-11-20T01:01:04;29.02;;;12.13;;
26319;SDS011;14024;52.226;5.200;2022-11-20T01:03:31;26.73;;;11.80;;
26319;SDS011;14024;52.226;5.200;2022-11-20T01:06:04;28.40;;;13.30;;
26319;SDS011;14024;52.226;5.200;2022-11-20T01:08:31;23.92;;;11.15;;
26319;SDS011;14024;52.226;5.200;2022-11-20T01:11:04;25.63;;;12.20;;
26319;SDS011;14024;52.226;5.200;2022-11-20T01:13:30;28.70;;;12.27;;
26319;SDS011;14024;52.226;5.200;2022-11-20T01:16:05;27.23;;;11.43;;
26319;SDS011;14024;52.226;5.200;2022-11-20T01:18:32;28.65;;;12.60;;
26319;SDS011;14024;52.226;5.200;2022-11-20T01:21:05;27.30;;;12.82;;
26319;SDS011;14024;52.226;5.200;2022-11-20T01:23:33;29.50;;;12.70;;
26319;SDS011;14024;52.226;5.200;2022-11-20T01:26:03;29.80;;;12.80;;
26319;SDS011;14024;52.226;5.200;2022-11-20T01:28:29;27.70;;;12.27;;
26319;SDS011;14024;52.226;5.200;2022-11-20T01:30:55;28.38;;;12.88;;
26319;SDS011;14024;52.226;5.200;2022-11-20T01:33:21;29.83;;;13.13;;
26319;SDS011;14024;52.226;5.200;2022-11-20T01:35:47;29.27;;;13.00;;
26319;SDS011;14024;52.226;5.200;2022-11-20T01:38:14;29.10;;;13.00;;
26319;SDS011;14024;52.226;5.200;2022-11-20T01:40:40;28.42;;;12.40;;
26319;SDS011;14024;52.226;5.200;2022-11-20T01:43:14;28.60;;;12.93;;
26319;SDS011;14024;52.226;5.200;2022-11-20T01:46:02;26.17;;;12.50;;
26319;SDS011;14024;52.226;5.200;2022-11-20T01:48:31;29.33;;;13.05;;
26319;SDS011;14024;52.226;5.200;2022-11-20T01:50:59;33.20;;;11.95;;
26319;SDS011;14024;52.226;5.200;2022-11-20T01:53:28;27.88;;;12.07;;
26319;SDS011;14024;52.226;5.200;2022-11-20T01:55:56;28.52;;;12.63;;
26319;SDS011;14024;52.226;5.200;2022-11-20T01:58:28;32.03;;;12.13;;
26319;SDS011;14024;52.226;5.200;2022-11-20T02:00:55;31.13;;;12.50;;
26319;SDS011;14024;52.226;5.200;2022-11-20T02:03:21;29.10;;;12.85;;
26319;SDS011;14024;52.226;5.200;2022-11-20T02:05:50;31.67;;;12.23;;
26319;SDS011;14024;52.226;5.200;2022-11-20T02:08:17;28.55;;;12.40;;
26319;SDS011;14024;52.226;5.200;2022-11-20T02:10:44;34.80;;;15.48;;
26319;SDS011;14024;52.226;5.200;2022-11-20T02:13:10;31.40;;;14.45;;
26319;SDS011;14024;52.226;5.200;2022-11-20T02:15:54;35.60;;;15.00;;
26319;SDS011;14024;52.226;5.200;2022-11-20T02:18:21;32.22;;;14.85;;
26319;SDS011;14024;52.226;5.200;2022-11-20T02:20:48;28.30;;;13.68;;
26319;SDS011;14024;52.226;5.200;2022-11-20T02:25:46;32.38;;;13.40;;
26319;SDS011;14024;52.226;5.200;2022-11-20T02:28:13;30.95;;;14.13;;
26319;SDS011;14024;52.226;5.200;2022-11-20T02:30:39;30.80;;;13.32;;
26319;SDS011;14024;52.226;5.200;2022-11-20T02:33:05;33.25;;;13.63;;
26319;SDS011;14024;52.226;5.200;2022-11-20T02:37:58;28.10;;;12.88;;
26319;SDS011;14024;52.226;5.200;2022-11-20T02:40:25;28.25;;;12.13;;
26319;SDS011;14024;52.226;5.200;2022-11-20T02:42:57;27.83;;;12.90;;
26319;SDS011;14024;52.226;5.200;2022-11-20T02:45:23;30.92;;;13.27;;
26319;SDS011;14024;52.226;5.200;2022-11-20T02:47:49;32.70;;;13.52;;
26319;SDS011;14024;52.226;5.200;2022-11-20T02:50:15;28.92;;;12.18;;
26319;SDS011;14024;52.226;5.200;2022-11-20T02:52:41;28.42;;;13.07;;
26319;SDS011;14024;52.226;5.200;2022-11-20T02:55:07;30.42;;;12.25;;
26319;SDS011;14024;52.226;5.200;2022-11-20T02:57:34;31.85;;;12.73;;
26319;SDS011;14024;52.226;5.200;2022-11-20T03:00:00;30.95;;;12.93;;
26319;SDS011;14024;52.226;5.200;2022-11-20T03:02:29;26.10;;;12.20;;
26319;SDS011;14024;52.226;5.200;2022-11-20T03:04:55;29.92;;;13.25;;
26319;SDS011;14024;52.226;5.200;2022-11-20T03:07:21;30.92;;;12.95;;
26319;SDS011;14024;52.226;5.200;2022-11-20T03:09:46;29.75;;;13.00;;
26319;SDS011;14024;52.226;5.200;2022-11-20T03:12:13;26.83;;;12.27;;
26319;SDS011;14024;52.226;5.200;2022-11-20T03:14:39;30.08;;;13.27;;
26319;SDS011;14024;52.226;5.200;2022-11-20T03:17:04;27.35;;;12.85;;
26319;SDS011;14024;52.226;5.200;2022-11-20T03:19:30;32.05;;;12.82;;
26319;SDS011;14024;52.226;5.200;2022-11-20T03:21:56;33.30;;;13.55;;
26319;SDS011;14024;52.226;5.200;2022-11-20T03:24:22;28.90;;;12.98;;
26319;SDS011;14024;52.226;5.200;2022-11-20T03:26:48;27.00;;;13.23;;
26319;SDS011;14024;52.226;5.200;2022-11-20T03:29:14;31.27;;;13.45;;
26319;SDS011;14024;52.226;5.200;2022-11-20T03:31:41;29.35;;;12.80;;
26319;SDS011;14024;52.226;5.200;2022-11-20T03:34:07;32.72;;;13.07;;
26319;SDS011;14024;52.226;5.200;2022-11-20T03:36:34;30.88;;;12.77;;
26319;SDS011;14024;52.226;5.200;2022-11-20T03:39:00;28.77;;;12.75;;
26319;SDS011;14024;52.226;5.200;2022-11-20T03:41:27;29.23;;;13.57;;
26319;SDS011;14024;52.226;5.200;2022-11-20T03:43:55;32.80;;;12.57;;
26319;SDS011;14024;52.226;5.200;2022-11-20T03:46:21;31.73;;;12.80;;
26319;SDS011;14024;52.226;5.200;2022-11-20T03:48:48;29.05;;;12.50;;
26319;SDS011;14024;52.226;5.200;2022-11-20T03:51:15;27.17;;;12.65;;
26319;SDS011;14024;52.226;5.200;2022-11-20T03:53:42;32.22;;;12.77;;
26319;SDS011;14024;52.226;5.200;2022-11-20T03:56:09;29.88;;;13.55;;
26319;SDS011;14024;52.226;5.200;2022-11-20T03:58:37;29.75;;;12.82;;
26319;SDS011;14024;52.226;5.200;2022-11-20T04:03:35;28.23;;;12.85;;
26319;SDS011;14024;52.226;5.200;2022-11-20T04:06:12;27.02;;;12.43;;
26319;SDS011;14024;52.226;5.200;2022-11-20T04:08:38;27.38;;;12.45;;
26319;SDS011;14024;52.226;5.200;2022-11-20T04:11:46;29.27;;;12.10;;
26319;SDS011;14024;52.226;5.200;2022-11-20T04:13:57;26.77;;;12.30;;
26319;SDS011;14024;52.226;5.200;2022-11-20T04:16:24;31.80;;;11.50;;
26319;SDS011;14024;52.226;5.200;2022-11-20T04:18:54;29.08;;;12.60;;
26319;SDS011;14024;52.226;5.200;2022-11-20T04:21:20;27.85;;;11.75;;
26319;SDS011;14024;52.226;5.200;2022-11-20T04:23:46;30.08;;;13.32;;
26319;SDS011;14024;52.226;5.200;2022-11-20T04:26:14;27.42;;;11.60;;
26319;SDS011;14024;52.226;5.200;2022-11-20T04:28:40;24.23;;;12.07;;
26319;SDS011;14024;52.226;5.200;2022-11-20T04:31:07;30.92;;;12.35;;
26319;SDS011;14024;52.226;5.200;2022-11-20T04:33:34;24.30;;;11.35;;
26319;SDS011;14024;52.226;5.200;2022-11-20T04:36:00;27.08;;;11.88;;
26319;SDS011;14024;52.226;5.200;2022-11-20T04:38:28;27.83;;;12.00;;
26319;SDS011;14024;52.226;5.200;2022-11-20T04:40:58;31.38;;;13.43;;
26319;SDS011;14024;52.226;5.200;2022-11-20T04:43:24;28.73;;;12.48;;
26319;SDS011;14024;52.226;5.200;2022-11-20T04:45:51;28.77;;;13.13;;
26319;SDS011;14024;52.226;5.200;2022-11-20T04:48:17;27.85;;;12.65;;
26319;SDS011;14024;52.226;5.200;2022-11-20T04:50:43;26.33;;;12.20;;
26319;SDS011;14024;52.226;5.200;2022-11-20T04:53:09;31.58;;;12.98;;
26319;SDS011;14024;52.226;5.200;2022-11-20T04:55:34;28.08;;;11.73;;
26319;SDS011;14024;52.226;5.200;2022-11-20T04:58:00;29.73;;;12.13;;
26319;SDS011;14024;52.226;5.200;2022-11-20T05:00:26;30.58;;;13.05;;
26319;SDS011;14024;52.226;5.200;2022-11-20T05:02:52;28.05;;;13.43;;
26319;SDS011;14024;52.226;5.200;2022-11-20T05:05:18;27.40;;;12.23;;
26319;SDS011;14024;52.226;5.200;2022-11-20T05:07:44;28.50;;;13.30;;
26319;SDS011;14024;52.226;5.200;2022-11-20T05:10:10;29.98;;;12.23;;
26319;SDS011;14024;52.226;5.200;2022-11-20T05:12:36;30.90;;;13.07;;
26319;SDS011;14024;52.226;5.200;2022-11-20T05:15:02;30.92;;;12.15;;
26319;SDS011;14024;52.226;5.200;2022-11-20T05:17:28;31.85;;;13.13;;
26319;SDS011;14024;52.226;5.200;2022-11-20T05:19:54;27.88;;;13.18;;
26319;SDS011;14024;52.226;5.200;2022-11-20T05:22:20;29.38;;;13.15;;
26319;SDS011;14024;52.226;5.200;2022-11-20T05:24:46;32.55;;;13.88;;
26319;SDS011;14024;52.226;5.200;2022-11-20T05:27:12;46.22;;;13.48;;
26319;SDS011;14024;52.226;5.200;2022-11-20T05:29:38;28.20;;;12.63;;
26319;SDS011;14024;52.226;5.200;2022-11-20T05:32:04;31.67;;;12.23;;
26319;SDS011;14024;52.226;5.200;2022-11-20T05:34:32;33.67;;;13.35;;
26319;SDS011;14024;52.226;5.200;2022-11-20T05:36:58;35.85;;;13.27;;
26319;SDS011;14024;52.226;5.200;2022-11-20T05:39:24;27.88;;;12.45;;
26319;SDS011;14024;52.226;5.200;2022-11-20T05:41:50;28.70;;;13.25;;
26319;SDS011;14024;52.226;5.200;2022-11-20T05:44:36;30.55;;;12.73;;
26319;SDS011;14024;52.226;5.200;2022-11-20T05:47:02;25.88;;;12.10;;
26319;SDS011;14024;52.226;5.200;2022-11-20T05:49:27;29.17;;;13.50;;
26319;SDS011;14024;52.226;5.200;2022-11-20T05:51:53;28.30;;;12.55;;
26319;SDS011;14024;52.226;5.200;2022-11-20T05:54:19;30.00;;;13.15;;
26319;SDS011;14024;52.226;5.200;2022-11-20T05:56:45;30.48;;;12.60;;
26319;SDS011;14024;52.226;5.200;2022-11-20T05:59:11;31.42;;;14.35;;
26319;SDS011;14024;52.226;5.200;2022-11-20T06:01:37;34.92;;;13.23;;
26319;SDS011;14024;52.226;5.200;2022-11-20T06:04:03;29.13;;;13.07;;
26319;SDS011;14024;52.226;5.200;2022-11-20T06:06:29;28.73;;;13.40;;
26319;SDS011;14024;52.226;5.200;2022-11-20T06:08:55;29.17;;;12.68;;
26319;SDS011;14024;52.226;5.200;2022-11-20T06:11:23;35.60;;;12.70;;
26319;SDS011;14024;52.226;5.200;2022-11-20T06:13:49;25.05;;;12.32;;
26319;SDS011;14024;52.226;5.200;2022-11-20T06:16:16;28.73;;;13.18;;
26319;SDS011;14024;52.226;5.200;2022-11-20T06:18:43;29.05;;;13.40;;
26319;SDS011;14024;52.226;5.200;2022-11-20T06:21:10;30.65;;;13.38;;
26319;SDS011;14024;52.226;5.200;2022-11-20T06:23:37;31.42;;;13.02;;
26319;SDS011;14024;52.226;5.200;2022-11-20T06:26:07;31.27;;;13.07;;
26319;SDS011;14024;52.226;5.200;2022-11-20T06:28:33;28.58;;;12.88;;
26319;SDS011;14024;52.226;5.200;2022-11-20T06:30:59;31.17;;;13.80;;
26319;SDS011;14024;52.226;5.200;2022-11-20T06:33:25;35.72;;;13.57;;
26319;SDS011;14024;52.226;5.200;2022-11-20T06:35:51;32.38;;;13.70;;
26319;SDS011;14024;52.226;5.200;2022-11-20T06:38:17;32.20;;;13.52;;
26319;SDS011;14024;52.226;5.200;2022-11-20T06:40:43;30.52;;;13.30;;
26319;SDS011;14024;52.226;5.200;2022-11-20T06:43:09;30.42;;;13.13;;
26319;SDS011;14024;52.226;5.200;2022-11-20T06:45:35;29.00;;;12.55;;
26319;SDS011;14024;52.226;5.200;2022-11-20T06:48:02;28.50;;;13.05;;
26319;SDS011;14024;52.226;5.200;2022-11-20T06:50:28;30.52;;;13.48;;
26319;SDS011;14024;52.226;5.200;2022-11-20T06:52:54;28.27;;;13.27;;
26319;SDS011;14024;52.226;5.200;2022-11-20T06:55:20;27.63;;;12.48;;
26319;SDS011;14024;52.226;5.200;2022-11-20T06:57:46;71.88;;;28.20;;
26319;SDS011;14024;52.226;5.200;2022-11-20T07:00:12;100.78;;;39.33;;
26319;SDS011;14024;52.226;5.200;2022-11-20T07:02:38;78.75;;;33.72;;
26319;SDS011;14024;52.226;5.200;2022-11-20T07:05:04;46.72;;;20.45;;
26319;SDS011;14024;52.226;5.200;2022-11-20T07:07:30;29.98;;;14.25;;
26319;SDS011;14024;52.226;5.200;2022-11-20T07:09:56;32.60;;;15.13;;
26319;SDS011;14024;52.226;5.200;2022-11-20T07:12:22;30.48;;;13.63;;
26319;SDS011;14024;52.226;5.200;2022-11-20T07:14:49;30.75;;;13.10;;
26319;SDS011;14024;52.226;5.200;2022-11-20T07:17:15;37.42;;;14.85;;
26319;SDS011;14024;52.226;5.200;2022-11-20T07:19:40;29.85;;;13.32;;
26319;SDS011;14024;52.226;5.200;2022-11-20T07:22:07;37.75;;;14.75;;
26319;SDS011;14024;52.226;5.200;2022-11-20T07:24:33;34.25;;;15.93;;
26319;SDS011;14024;52.226;5.200;2022-11-20T07:26:59;31.80;;;14.38;;
26319;SDS011;14024;52.226;5.200;2022-11-20T07:29:25;36.78;;;13.95;;
26319;SDS011;14024;52.226;5.200;2022-11-20T07:31:51;28.40;;;13.02;;
26319;SDS011;14024;52.226;5.200;2022-11-20T07:34:17;34.70;;;14.30;;
26319;SDS011;14024;52.226;5.200;2022-11-20T07:36:44;31.98;;;13.18;;
26319;SDS011;14024;52.226;5.200;2022-11-20T07:39:10;32.97;;;14.13;;
26319;SDS011;14024;52.226;5.200;2022-11-20T07:41:36;27.27;;;12.95;;
26319;SDS011;14024;52.226;5.200;2022-11-20T07:44:02;29.80;;;13.40;;
26319;SDS011;14024;52.226;5.200;2022-11-20T07:46:28;33.92;;;13.05;;
26319;SDS011;14024;52.226;5.200;2022-11-20T07:48:54;29.60;;;12.82;;
26319;SDS011;14024;52.226;5.200;2022-11-20T07:51:20;31.52;;;13.88;;
26319;SDS011;14024;52.226;5.200;2022-11-20T07:53:47;30.58;;;13.52;;
26319;SDS011;14024;52.226;5.200;2022-11-20T07:56:12;36.17;;;14.40;;
26319;SDS011;14024;52.226;5.200;2022-11-20T07:58:39;30.38;;;14.50;;
26319;SDS011;14024;52.226;5.200;2022-11-20T08:01:06;31.35;;;13.80;;
26319;SDS011;14024;52.226;5.200;2022-11-20T08:03:32;31.25;;;13.93;;
26319;SDS011;14024;52.226;5.200;2022-11-20T08:05:58;34.25;;;14.23;;
26319;SDS011;14024;52.226;5.200;2022-11-20T08:08:25;32.40;;;13.77;;
26319;SDS011;14024;52.226;5.200;2022-11-20T08:10:51;39.83;;;15.75;;
26319;SDS011;14024;52.226;5.200;2022-11-20T08:13:17;33.60;;;15.85;;
26319;SDS011;14024;52.226;5.200;2022-11-20T08:16:02;50.38;;;18.85;;
26319;SDS011;14024;52.226;5.200;2022-11-20T08:18:28;38.67;;;16.98;;
26319;SDS011;14024;52.226;5.200;2022-11-20T08:20:54;39.92;;;17.70;;
26319;SDS011;14024;52.226;5.200;2022-11-20T08:23:20;41.75;;;15.75;;
26319;SDS011;14024;52.226;5.200;2022-11-20T08:25:48;35.53;;;16.13;;
26319;SDS011;14024;52.226;5.200;2022-11-20T08:28:15;35.72;;;15.75;;
26319;SDS011;14024;52.226;5.200;2022-11-20T08:30:41;41.65;;;18.35;;
26319;SDS011;14024;52.226;5.200;2022-11-20T08:33:08;34.38;;;16.15;;
26319;SDS011;14024;52.226;5.200;2022-11-20T08:35:35;35.00;;;15.57;;
26319;SDS011;14024;52.226;5.200;2022-11-20T08:38:01;37.38;;;16.35;;
26319;SDS011;14024;52.226;5.200;2022-11-20T08:40:28;36.22;;;16.17;;
26319;SDS011;14024;52.226;5.200;2022-11-20T08:42:54;38.08;;;17.40;;
26319;SDS011;14024;52.226;5.200;2022-11-20T08:45:20;39.80;;;18.23;;
26319;SDS011;14024;52.226;5.200;2022-11-20T08:47:45;43.33;;;19.95;;
26319;SDS011;14024;52.226;5.200;2022-11-20T08:50:13;42.28;;;18.38;;
26319;SDS011;14024;52.226;5.200;2022-11-20T08:52:39;36.00;;;18.08;;
26319;SDS011;14024;52.226;5.200;2022-11-20T08:55:05;40.72;;;19.08;;
26319;SDS011;14024;52.226;5.200;2022-11-20T08:57:33;51.95;;;22.45;;
26319;SDS011;14024;52.226;5.200;2022-11-20T08:59:59;61.97;;;25.38;;
26319;SDS011;14024;52.226;5.200;2022-11-20T09:02:25;48.05;;;20.00;;
26319;SDS011;14024;52.226;5.200;2022-11-20T09:04:51;39.30;;;18.23;;
26319;SDS011;14024;52.226;5.200;2022-11-20T09:07:18;45.95;;;18.85;;
26319;SDS011;14024;52.226;5.200;2022-11-20T09:09:44;42.92;;;18.70;;
26319;SDS011;14024;52.226;5.200;2022-11-20T09:12:10;40.55;;;18.25;;
26319;SDS011;14024;52.226;5.200;2022-11-20T09:14:36;39.30;;;19.38;;
26319;SDS011;14024;52.226;5.200;2022-11-20T09:17:05;48.88;;;20.75;;
26319;SDS011;14024;52.226;5.200;2022-11-20T09:19:32;43.20;;;19.05;;
26319;SDS011;14024;52.226;5.200;2022-11-20T09:21:58;54.67;;;21.20;;
26319;SDS011;14024;52.226;5.200;2022-11-20T09:24:26;42.95;;;19.50;;
26319;SDS011;14024;52.226;5.200;2022-11-20T09:26:53;44.10;;;18.92;;
26319;SDS011;14024;52.226;5.200;2022-11-20T09:29:19;42.47;;;18.63;;
26319;SDS011;14024;52.226;5.200;2022-11-20T09:31:45;40.55;;;19.38;;
26319;SDS011;14024;52.226;5.200;2022-11-20T09:34:10;44.85;;;19.27;;
26319;SDS011;14024;52.226;5.200;2022-11-20T09:36:36;38.45;;;18.75;;
26319;SDS011;14024;52.226;5.200;2022-11-20T09:39:02;40.50;;;18.60;;
26319;SDS011;14024;52.226;5.200;2022-11-20T09:41:51;49.33;;;19.80;;
26319;SDS011;14024;52.226;5.200;2022-11-20T09:44:34;41.55;;;19.40;;
26319;SDS011;14024;52.226;5.200;2022-11-20T09:47:16;41.15;;;18.75;;
26319;SDS011;14024;52.226;5.200;2022-11-20T09:49:58;40.42;;;18.80;;
26319;SDS011;14024;52.226;5.200;2022-11-20T09:52:30;42.17;;;19.90;;
26319;SDS011;14024;52.226;5.200;2022-11-20T09:54:58;38.58;;;19.42;;
26319;SDS011;14024;52.226;5.200;2022-11-20T09:57:31;37.45;;;18.00;;
26319;SDS011;14024;52.226;5.200;2022-11-20T10:00:03;45.55;;;20.45;;
26319;SDS011;14024;52.226;5.200;2022-11-20T10:04:59;43.60;;;19.80;;
26319;SDS011;14024;52.226;5.200;2022-11-20T10:07:29;40.63;;;18.65;;
26319;SDS011;14024;52.226;5.200;2022-11-20T10:09:56;44.53;;;19.67;;
26319;SDS011;14024;52.226;5.200;2022-11-20T10:12:47;38.22;;;18.98;;
26319;SDS011;14024;52.226;5.200;2022-11-20T10:15:27;45.65;;;20.20;;
26319;SDS011;14024;52.226;5.200;2022-11-20T10:25:39;42.33;;;20.23;;
26319;SDS011;14024;52.226;5.200;2022-11-20T10:30:48;50.20;;;21.38;;
26319;SDS011;14024;52.226;5.200;2022-11-20T10:33:17;47.20;;;21.30;;
26319;SDS011;14024;52.226;5.200;2022-11-20T10:41:02;48.35;;;21.63;;
26319;SDS011;14024;52.226;5.200;2022-11-20T10:43:47;55.65;;;21.92;;
26319;SDS011;14024;52.226;5.200;2022-11-20T10:46:21;43.83;;;20.13;;
26319;SDS011;14024;52.226;5.200;2022-11-20T10:48:47;47.42;;;21.77;;
26319;SDS011;14024;52.226;5.200;2022-11-20T10:56:31;50.20;;;22.42;;
26319;SDS011;14024;52.226;5.200;2022-11-20T11:01:45;47.30;;;21.10;;
26319;SDS011;14024;52.226;5.200;2022-11-20T11:04:18;44.72;;;;;
26319;SDS011;14024;52.226;5.200;2022-11-20T11:06:50;52.75;;;22.73;;
26319;SDS011;14024;52.226;5.200;2022-11-20T11:09:19;47.85;;;22.92;;
26319;SDS011;14024;52.226;5.200;2022-11-20T11:11:48;55.33;;;24.23;;
26319;SDS011;14024;52.226;5.200;2022-11-20T11:14:14;50.95;;;22.02;;
26319;SDS011;14024;52.226;5.200;2022-11-20T11:16:54;53.95;;;24.23;;
26319;SDS011;14024;52.226;5.200;2022-11-20T11:19:20;56.72;;;24.52;;
26319;SDS011;14024;52.226;5.200;2022-11-20T11:21:56;54.53;;;24.85;;
26319;SDS011;14024;52.226;5.200;2022-11-20T11:24:23;55.95;;;24.13;;
26319;SDS011;14024;52.226;5.200;2022-11-20T11:26:51;55.97;;;24.13;;
26319;SDS011;14024;52.226;5.200;2022-11-20T11:29:17;57.03;;;23.20;;
26319;SDS011;14024;52.226;5.200;2022-11-20T11:31:44;55.65;;;23.23;;
26319;SDS011;14024;52.226;5.200;2022-11-20T11:36:35;54.38;;;25.77;;
26319;SDS011;14024;52.226;5.200;2022-11-20T11:39:03;56.50;;;25.42;;
26319;SDS011;14024;52.226;5.200;2022-11-20T11:41:33;64.32;;;28.60;;
26319;SDS011;14024;52.226;5.200;2022-11-20T11:44:03;71.20;;;31.35;;
26319;SDS011;14024;52.226;5.200;2022-11-20T11:46:57;65.03;;;29.10;;
26319;SDS011;14024;52.226;5.200;2022-11-20T11:49:24;62.45;;;27.27;;
26319;SDS011;14024;52.226;5.200;2022-11-20T11:51:57;58.72;;;25.73;;
26319;SDS011;14024;52.226;5.200;2022-11-20T11:54:27;48.83;;;22.77;;
26319;SDS011;14024;52.226;5.200;2022-11-20T11:56:55;58.80;;;26.75;;
26319;SDS011;14024;52.226;5.200;2022-11-20T11:59:26;70.70;;;30.50;;
26319;SDS011;14024;52.226;5.200;2022-11-20T12:01:59;64.68;;;30.02;;
26319;SDS011;14024;52.226;5.200;2022-11-20T12:07:01;63.03;;;27.52;;
26319;SDS011;14024;52.226;5.200;2022-11-20T12:09:34;66.75;;;29.55;;
26319;SDS011;14024;52.226;5.200;2022-11-20T12:12:08;70.78;;;30.85;;
26319;SDS011;14024;52.226;5.200;2022-11-20T12:14:40;67.97;;;28.80;;
26319;SDS011;14024;52.226;5.200;2022-11-20T12:17:11;70.93;;;30.45;;
26319;SDS011;14024;52.226;5.200;2022-11-20T12:19:37;71.38;;;29.27;;
26319;SDS011;14024;52.226;5.200;2022-11-20T12:37:17;68.05;;;28.50;;
26319;SDS011;14024;52.226;5.200;2022-11-20T12:39:48;70.38;;;28.92;;
26319;SDS011;14024;52.226;5.200;2022-11-20T12:45:24;70.55;;;30.30;;
26319;SDS011;14024;52.226;5.200;2022-11-20T12:53:15;70.35;;;29.48;;
26319;SDS011;14024;52.226;5.200;2022-11-20T13:01:00;67.68;;;29.70;;
26319;SDS011;14024;52.226;5.200;2022-11-20T13:03:39;69.22;;;31.38;;
26319;SDS011;14024;52.226;5.200;2022-11-20T13:06:13;65.03;;;28.70;;
26319;SDS011;14024;52.226;5.200;2022-11-20T13:08:40;71.47;;;30.92;;
26319;SDS011;14024;52.226;5.200;2022-11-20T13:14:02;71.95;;;28.48;;
26319;SDS011;14024;52.226;5.200;2022-11-20T13:18:55;70.55;;;29.85;;
26319;SDS011;14024;52.226;5.200;2022-11-20T13:21:22;71.03;;;29.38;;
26319;SDS011;14024;52.226;5.200;2022-11-20T13:23:48;68.47;;;29.45;;
26319;SDS011;14024;52.226;5.200;2022-11-20T13:26:15;80.53;;;32.03;;
26319;SDS011;14024;52.226;5.200;2022-11-20T13:28:42;69.68;;;30.40;;
26319;SDS011;14024;52.226;5.200;2022-11-20T13:31:24;74.25;;;31.08;;
26319;SDS011;14024;52.226;5.200;2022-11-20T13:33:51;77.18;;;31.38;;
26319;SDS011;14024;52.226;5.200;2022-11-20T13:36:20;74.88;;;31.50;;
26319;SDS011;14024;52.226;5.200;2022-11-20T13:38:48;71.47;;;31.20;;
26319;SDS011;14024;52.226;5.200;2022-11-20T13:41:28;65.45;;;29.80;;
26319;SDS011;14024;52.226;5.200;2022-11-20T13:46:40;69.57;;;29.23;;
26319;SDS011;14024;52.226;5.200;2022-11-20T13:51:43;73.50;;;31.90;;
26319;SDS011;14024;52.226;5.200;2022-11-20T14:01:32;70.45;;;31.40;;
26319;SDS011;14024;52.226;5.200;2022-11-20T14:03:59;73.22;;;31.58;;
26319;SDS011;14024;52.226;5.200;2022-11-20T14:06:32;66.22;;;30.10;;
26319;SDS011;14024;52.226;5.200;2022-11-20T14:08:59;67.95;;;29.10;;
26319;SDS011;14024;52.226;5.200;2022-11-20T14:11:29;69.60;;;30.63;;
26319;SDS011;14024;52.226;5.200;2022-11-20T14:13:57;68.15;;;27.95;;
26319;SDS011;14024;52.226;5.200;2022-11-20T14:16:23;65.03;;;29.35;;
26319;SDS011;14024;52.226;5.200;2022-11-20T14:18:50;64.65;;;30.42;;
26319;SDS011;14024;52.226;5.200;2022-11-20T14:21:23;72.97;;;32.40;;
26319;SDS011;14024;52.226;5.200;2022-11-20T14:23:51;71.22;;;29.95;;
26319;SDS011;14024;52.226;5.200;2022-11-20T14:26:18;64.03;;;29.83;;
26319;SDS011;14024;52.226;5.200;2022-11-20T14:28:48;71.60;;;30.60;;
26319;SDS011;14024;52.226;5.200;2022-11-20T14:31:25;68.35;;;30.02;;
26319;SDS011;14024;52.226;5.200;2022-11-20T14:33:52;71.65;;;30.65;;
26319;SDS011;14024;52.226;5.200;2022-11-20T14:36:19;65.63;;;30.50;;
26319;SDS011;14024;52.226;5.200;2022-11-20T14:38:46;69.68;;;31.05;;
26319;SDS011;14024;52.226;5.200;2022-11-20T14:41:19;70.10;;;31.20;;
26319;SDS011;14024;52.226;5.200;2022-11-20T14:46:11;71.28;;;30.20;;
26319;SDS011;14024;52.226;5.200;2022-11-20T14:51:04;69.40;;;31.00;;
26319;SDS011;14024;52.226;5.200;2022-11-20T14:53:30;70.78;;;30.85;;
26319;SDS011;14024;52.226;5.200;2022-11-20T14:56:00;75.32;;;31.48;;
26319;SDS011;14024;52.226;5.200;2022-11-20T14:58:28;80.55;;;31.80;;
26319;SDS011;14024;52.226;5.200;2022-11-20T15:00:58;68.53;;;29.70;;
26319;SDS011;14024;52.226;5.200;2022-11-20T15:03:31;75.10;;;31.10;;
26319;SDS011;14024;52.226;5.200;2022-11-20T15:05:58;79.78;;;32.42;;
26319;SDS011;14024;52.226;5.200;2022-11-20T15:08:25;73.78;;;31.10;;
26319;SDS011;14024;52.226;5.200;2022-11-20T15:10:51;79.35;;;31.95;;
26319;SDS011;14024;52.226;5.200;2022-11-20T15:13:19;76.75;;;33.35;;
26319;SDS011;14024;52.226;5.200;2022-11-20T15:15:49;82.07;;;31.27;;
26319;SDS011;14024;52.226;5.200;2022-11-20T15:18:16;70.72;;;30.42;;
26319;SDS011;14024;52.226;5.200;2022-11-20T15:20:43;80.18;;;32.92;;
26319;SDS011;14024;52.226;5.200;2022-11-20T15:23:10;79.80;;;32.30;;
26319;SDS011;14024;52.226;5.200;2022-11-20T15:25:37;80.22;;;30.92;;
26319;SDS011;14024;52.226;5.200;2022-11-20T15:28:04;73.45;;;30.58;;
26319;SDS011;14024;52.226;5.200;2022-11-20T15:30:34;69.32;;;29.88;;
26319;SDS011;14024;52.226;5.200;2022-11-20T15:33:00;66.63;;;29.88;;
26319;SDS011;14024;52.226;5.200;2022-11-20T15:35:26;75.95;;;32.22;;
26319;SDS011;14024;52.226;5.200;2022-11-20T15:37:52;71.43;;;30.63;;
26319;SDS011;14024;52.226;5.200;2022-11-20T15:40:18;69.25;;;30.13;;
26319;SDS011;14024;52.226;5.200;2022-11-20T15:42:44;70.40;;;30.35;;
26319;SDS011;14024;52.226;5.200;2022-11-20T15:45:27;73.70;;;30.55;;
26319;SDS011;14024;52.226;5.200;2022-11-20T15:47:54;71.22;;;29.02;;
26319;SDS011;14024;52.226;5.200;2022-11-20T15:50:20;67.30;;;29.60;;
26319;SDS011;14024;52.226;5.200;2022-11-20T15:52:46;65.53;;;29.77;;
26319;SDS011;14024;52.226;5.200;2022-11-20T15:55:12;68.35;;;29.33;;
26319;SDS011;14024;52.226;5.200;2022-11-20T15:57:38;70.78;;;30.55;;